Time;durP1;ratioP1;P1;durP2;ratioP2;P2;SDS_P1;SDS_P2;PMS_P1;PMS_P2;Temp;Humidity;BMP_temperature;BMP_pressure;BME280_temperature;BME280_humidity;BME280_pressure;Samples;Min_cycle;Max_cycle;Signal;HPM_P1;HPM_P2
2023/03/26 00:01:40;;;;;;;1.42;0.93;;;;;;;9.23;68.95;96185.25;6248719;23;20020;-77
2023/03/26 00:04:08;;;;;;;1.05;0.60;;;;;;;9.29;69.36;96186.28;6246319;22;20027;-77
2023/03/26 00:06:38;;;;;;;1.85;0.95;;;;;;;9.35;69.94;96189.97;6245604;22;20024;-77
2023/03/26 00:09:08;;;;;;;2.97;0.93;;;;;;;9.38;69.94;96187.81;6245109;23;20463;-77
2023/03/26 00:11:35;;;;;;;1.52;0.52;;;;;;;9.40;70.38;96185.00;6245084;22;20024;-77
2023/03/26 00:14:04;;;;;;;4.25;0.65;;;;;;;9.38;68.87;96177.41;6245006;22;20024;-77
2023/03/26 00:16:34;;;;;;;0.93;0.52;;;;;;;9.32;69.31;96172.94;6244733;22;20464;-77
2023/03/26 00:19:02;;;;;;;2.03;0.70;;;;;;;9.35;70.15;96167.34;6244250;22;20024;-77
2023/03/26 00:21:31;;;;;;;1.50;0.88;;;;;;;9.35;68.71;96162.13;6244883;22;20020;-77
2023/03/26 00:24:03;;;;;;;3.78;0.88;;;;;;;9.35;70.30;96167.34;6244813;22;20351;-77
2023/03/26 00:26:32;;;;;;;2.08;0.80;;;;;;;9.34;69.72;96160.53;6245097;23;20024;-77
2023/03/26 00:29:02;;;;;;;3.30;1.30;;;;;;;9.30;68.69;96167.09;6243935;23;20016;-77
2023/03/26 00:31:30;;;;;;;1.15;0.85;;;;;;;9.22;69.03;96159.41;6245088;22;20024;-77
2023/03/26 00:34:02;;;;;;;3.58;0.70;;;;;;;9.21;69.08;96161.19;6244797;22;20089;-77
2023/03/26 00:36:29;;;;;;;5.00;0.80;;;;;;;9.17;68.31;96166.94;6245072;23;20024;-77
2023/03/26 00:38:57;;;;;;;2.30;0.65;;;;;;;9.16;70.17;96163.56;6244009;23;20055;-77
2023/03/26 00:41:29;;;;;;;3.70;1.23;;;;;;;9.18;69.55;96155.53;6245016;22;20020;-78
2023/03/26 00:43:58;;;;;;;4.45;1.10;;;;;;;9.18;68.40;96158.97;6244385;22;20016;-77
2023/03/26 00:46:28;;;;;;;1.15;0.70;;;;;;;9.20;69.66;96158.78;6244959;22;20020;-77
2023/03/26 00:48:57;;;;;;;2.40;0.88;;;;;;;9.22;71.06;96165.41;6244261;22;20062;-77
2023/03/26 00:51:28;;;;;;;5.85;1.20;;;;;;;9.24;71.78;96158.22;6244822;22;20019;-77
2023/03/26 00:53:56;;;;;;;2.05;0.60;;;;;;;9.30;71.45;96168.91;6244730;22;20023;-77
2023/03/26 00:56:24;;;;;;;3.38;1.00;;;;;;;9.29;72.39;96162.88;6244837;23;20020;-77
2023/03/26 00:58:52;;;;;;;2.63;0.73;;;;;;;9.27;71.38;96173.47;6243603;22;20081;-77
2023/03/26 01:01:26;;;;;;;2.55;0.75;;;;;;;9.29;71.57;96168.06;6245014;22;20020;-77
2023/03/26 01:03:58;;;;;;;0.95;0.60;;;;;;;9.28;71.74;96164.66;6244476;22;20020;-77
2023/03/26 01:06:40;;;;;;;2.38;0.73;;;;;;;9.30;72.38;96163.69;6244559;23;20046;-77
2023/03/26 01:09:14;;;;;;;2.60;0.85;;;;;;;9.27;70.09;96159.63;6243743;23;20123;-77
2023/03/26 01:11:42;;;;;;;3.38;0.80;;;;;;;9.26;71.56;96147.63;6244844;23;20424;-77
2023/03/26 01:14:12;;;;;;;1.40;0.77;;;;;;;9.26;72.45;96142.44;6244029;22;20024;-77
2023/03/26 01:16:43;;;;;;;1.55;0.90;;;;;;;9.29;71.95;96142.03;6244506;23;20103;-77
2023/03/26 01:19:20;;;;;;;1.45;0.85;;;;;;;9.33;72.56;96138.09;6243856;23;20363;-76
2023/03/26 01:21:48;;;;;;;3.28;1.75;;;;;;;9.30;69.47;96132.47;6244927;23;20363;-77
2023/03/26 01:24:17;;;;;;;1.25;0.82;;;;;;;9.28;70.42;96130.03;6244774;22;20348;-77
2023/03/26 01:26:58;;;;;;;2.72;1.38;;;;;;;9.28;73.04;96128.22;6245921;23;20103;-78
2023/03/26 01:29:32;;;;;;;1.55;0.70;;;;;;;9.28;70.47;96124.84;6245871;23;20091;-77
2023/03/26 01:32:08;;;;;;;2.42;1.25;;;;;;;9.28;71.68;96119.63;6257999;23;20024;-77
2023/03/26 01:34:48;;;;;;;1.35;0.70;;;;;;;9.31;72.56;96119.25;6256677;22;20027;-77
2023/03/26 01:37:23;;;;;;;3.40;0.90;;;;;;;9.33;69.30;96106.84;6248422;22;20030;-77
2023/03/26 01:39:57;;;;;;;2.38;0.80;;;;;;;9.33;71.12;96108.66;6246347;23;20103;-77
2023/03/26 01:42:36;;;;;;;1.35;0.73;;;;;;;9.29;70.80;96105.59;6247139;22;20020;-76
2023/03/26 01:45:10;;;;;;;2.00;0.52;;;;;;;9.28;68.89;96104.81;6246362;22;20087;-77
2023/03/26 01:47:40;;;;;;;2.63;0.90;;;;;;;9.22;69.40;96100.34;6246114;23;20030;-77
2023/03/26 01:50:09;;;;;;;5.13;1.33;;;;;;;9.24;69.98;96102.75;6246055;22;20020;-77
2023/03/26 01:52:37;;;;;;;1.40;0.70;;;;;;;9.25;69.84;96096.59;6246360;22;20460;-77
2023/03/26 01:55:10;;;;;;;3.95;1.25;;;;;;;9.19;67.49;96097.31;6246239;22;20016;-76
2023/03/26 01:57:52;;;;;;;3.35;0.98;;;;;;;9.16;68.25;96089.88;6246361;23;20024;-77
2023/03/26 02:00:27;;;;;;;3.35;0.95;;;;;;;9.17;69.08;96087.09;6245961;23;20519;-77
2023/03/26 02:03:04;;;;;;;3.60;1.17;;;;;;;9.20;71.47;96075.50;6246233;23;20067;-77
2023/03/26 02:05:36;;;;;;;2.55;0.77;;;;;;;9.24;70.87;96079.34;6246485;23;20308;-77
2023/03/26 02:08:11;;;;;;;2.83;1.15;;;;;;;9.24;71.00;96071.53;6245252;23;20418;-77
2023/03/26 02:10:42;;;;;;;1.90;1.00;;;;;;;9.19;70.02;96071.28;6246227;23;20024;-77
2023/03/26 02:13:11;;;;;;;2.57;0.90;;;;;;;9.15;69.87;96065.66;6246030;22;20456;-77
2023/03/26 02:15:39;;;;;;;3.22;0.90;;;;;;;9.17;69.77;96062.88;6246228;22;20050;-77
2023/03/26 02:18:09;;;;;;;5.97;1.23;;;;;;;9.19;70.47;96059.09;6245232;22;20082;-77
2023/03/26 02:20:37;;;;;;;3.22;1.15;;;;;;;9.21;70.71;96043.28;6246140;23;20024;-76
2023/03/26 02:23:05;;;;;;;2.70;1.00;;;;;;;9.22;69.80;96045.69;6245592;22;20028;-77
2023/03/26 02:25:34;;;;;;;2.95;1.00;;;;;;;9.21;67.61;96041.50;6245587;22;20468;-76
2023/03/26 02:28:04;;;;;;;2.53;0.93;;;;;;;9.17;67.56;96044.66;6245125;23;20016;-77
2023/03/26 02:30:32;;;;;;;2.42;1.05;;;;;;;9.11;66.50;96048.78;6245846;22;20024;-77
2023/03/26 02:33:00;;;;;;;5.18;1.80;;;;;;;9.00;66.18;96042.28;6246043;22;20043;-77
2023/03/26 02:35:27;;;;;;;2.80;0.85;;;;;;;8.93;67.10;96041.41;6245907;22;20016;-76
2023/03/26 02:37:55;;;;;;;2.88;1.00;;;;;;;8.92;66.76;96036.38;6245236;22;20035;-77
2023/03/26 02:40:23;;;;;;;3.22;0.98;;;;;;;8.86;66.47;96037.94;6245712;23;20027;-77
2023/03/26 02:42:51;;;;;;;3.88;1.38;;;;;;;8.82;66.40;96034.09;6245462;23;20062;-77
2023/03/26 02:45:20;;;;;;;3.80;1.73;;;;;;;8.79;66.31;96030.09;6245468;22;20348;-77
2023/03/26 02:47:49;;;;;;;3.63;1.10;;;;;;;8.78;65.90;96019.84;6244677;22;20028;-77
2023/03/26 02:50:18;;;;;;;2.33;1.25;;;;;;;8.70;66.19;96025.16;6245753;23;20070;-76
2023/03/26 02:52:47;;;;;;;4.50;1.77;;;;;;;8.64;66.44;96009.31;6245703;23;20043;-76
2023/03/26 02:55:15;;;;;;;3.78;1.20;;;;;;;8.62;66.29;96013.91;6245512;22;20026;-77
2023/03/26 02:57:43;;;;;;;2.95;1.13;;;;;;;8.59;66.35;96009.06;6245024;22;20031;-77
2023/03/26 03:00:16;;;;;;;2.28;1.02;;;;;;;8.56;66.21;96016.44;6244956;22;20100;-77
2023/03/26 03:02:46;;;;;;;1.85;0.98;;;;;;;8.48;66.07;96009.53;6245659;23;20060;-77
2023/03/26 03:05:14;;;;;;;2.80;1.13;;;;;;;8.39;66.53;96005.41;6245574;22;20020;-77
2023/03/26 03:07:42;;;;;;;2.95;1.20;;;;;;;8.38;66.79;96003.81;6245892;23;20344;-77
2023/03/26 03:10:12;;;;;;;1.75;1.00;;;;;;;8.40;66.95;96007.03;6245032;22;20023;-77
2023/03/26 03:12:40;;;;;;;2.42;1.10;;;;;;;8.36;66.72;96000.56;6245262;23;20531;-77
2023/03/26 03:15:09;;;;;;;4.63;1.30;;;;;;;8.26;66.66;95990.47;6244893;22;20026;-77
2023/03/26 03:17:37;;;;;;;5.95;1.17;;;;;;;8.25;67.83;95988.84;6245491;23;20507;-77
2023/03/26 03:20:08;;;;;;;2.47;1.20;;;;;;;8.22;66.77;95989.19;6244211;23;20028;-77
2023/03/26 03:22:36;;;;;;;5.30;1.80;;;;;;;8.15;66.89;95993.53;6245676;23;20383;-77
2023/03/26 03:25:04;;;;;;;4.63;1.10;;;;;;;8.10;67.08;95993.28;6244694;22;20024;-77
2023/03/26 03:27:31;;;;;;;1.88;0.93;;;;;;;8.04;66.87;95982.59;6245368;22;20079;-77
2023/03/26 03:29:59;;;;;;;3.72;1.38;;;;;;;8.03;66.94;95969.81;6244678;22;20020;-77
2023/03/26 03:32:27;;;;;;;2.83;0.90;;;;;;;7.99;66.42;95974.56;6247986;23;20031;-77
2023/03/26 03:34:55;;;;;;;3.00;0.70;;;;;;;7.95;66.33;95978.50;6249134;22;20472;-77
2023/03/26 03:37:25;;;;;;;2.38;0.85;;;;;;;7.86;65.94;95979.56;6249569;23;20024;-77
2023/03/26 03:39:52;;;;;;;3.72;1.10;;;;;;;7.83;66.82;95975.56;6247601;23;20042;-77
2023/03/26 03:42:20;;;;;;;3.20;1.15;;;;;;;7.80;66.16;95980.28;6245716;22;20538;-77
2023/03/26 03:44:47;;;;;;;2.25;0.80;;;;;;;7.71;66.43;95978.78;6247249;22;20412;-77
2023/03/26 03:47:15;;;;;;;2.78;1.02;;;;;;;7.61;66.76;95976.44;6247683;22;20028;-77
2023/03/26 03:49:42;;;;;;;1.80;0.80;;;;;;;7.59;67.24;95970.63;6245716;23;20385;-76
2023/03/26 03:52:10;;;;;;;3.53;1.20;;;;;;;7.60;67.19;95974.81;6245684;23;20106;-77
2023/03/26 03:54:39;;;;;;;3.15;1.10;;;;;;;7.58;67.42;95969.81;6244776;22;20054;-77
2023/03/26 03:57:06;;;;;;;4.13;1.42;;;;;;;7.62;67.76;95967.66;6245333;22;20020;-77
2023/03/26 03:59:34;;;;;;;6.00;1.30;;;;;;;7.67;67.22;95965.34;6244678;22;20020;-77
2023/03/26 04:02:02;;;;;;;2.88;0.98;;;;;;;7.72;67.60;95962.19;6244924;22;20055;-77
2023/03/26 04:04:29;;;;;;;3.95;0.93;;;;;;;7.73;67.37;95950.84;6244881;22;20043;-77
2023/03/26 04:06:57;;;;;;;3.63;0.88;;;;;;;7.73;67.13;95945.66;6245639;22;20043;-77
2023/03/26 04:09:24;;;;;;;3.35;1.13;;;;;;;7.70;67.22;95946.03;6244068;23;20103;-77
2023/03/26 04:11:53;;;;;;;3.47;1.00;;;;;;;7.66;67.17;95944.75;6245375;22;20024;-77
2023/03/26 04:14:21;;;;;;;2.70;0.95;;;;;;;7.64;67.46;95950.13;6258712;22;20031;-77
2023/03/26 04:16:48;;;;;;;4.57;2.40;;;;;;;7.67;67.67;95943.78;6259606;23;20524;-77
2023/03/26 04:19:16;;;;;;;6.40;3.15;;;;;;;7.66;67.62;95939.56;6245273;23;20436;-77
2023/03/26 04:21:44;;;;;;;12.75;6.82;;;;;;;7.65;67.54;95936.16;6245511;22;20103;-77
2023/03/26 04:24:12;;;;;;;13.60;6.65;;;;;;;7.64;67.63;95926.75;6244716;22;20465;-77
2023/03/26 04:26:40;;;;;;;10.90;5.97;;;;;;;7.61;67.58;95920.16;6245253;23;20054;-77
2023/03/26 04:29:15;;;;;;;5.35;3.33;;;;;;;7.57;67.69;95918.09;6244510;23;20024;-77
2023/03/26 04:31:43;;;;;;;5.05;2.03;;;;;;;7.51;67.63;95914.41;6244855;23;20024;-76
2023/03/26 04:34:22;;;;;;;2.58;1.38;;;;;;;7.47;68.58;95912.34;6244609;22;20554;-76
2023/03/26 04:36:53;;;;;;;7.28;1.30;;;;;;;7.45;68.29;95902.16;6244689;23;20099;-77
2023/03/26 04:39:21;;;;;;;6.78;1.45;;;;;;;7.49;68.21;95908.59;6242037;23;20024;-77
2023/03/26 04:41:49;;;;;;;5.15;0.90;;;;;;;7.54;68.11;95902.88;6242962;23;20480;-77
2023/03/26 04:44:21;;;;;;;3.00;1.08;;;;;;;7.60;69.46;95897.75;6242677;22;20107;-76
2023/03/26 04:46:48;;;;;;;3.85;1.05;;;;;;;7.64;68.30;95887.84;6242712;23;20027;-77
2023/03/26 04:49:16;;;;;;;2.22;1.10;;;;;;;7.59;68.09;95885.78;6241669;23;20031;-77
2023/03/26 04:51:45;;;;;;;4.22;1.00;;;;;;;7.59;68.34;95880.59;6242595;22;20020;-76
2023/03/26 04:54:14;;;;;;;5.28;2.65;;;;;;;7.60;68.23;95878.78;6244785;22;20051;-77
2023/03/26 04:56:46;;;;;;;2.97;1.20;;;;;;;7.55;68.24;95866.34;6245253;22;20095;-76
2023/03/26 04:59:19;;;;;;;4.97;1.20;;;;;;;7.52;67.98;95850.34;6244762;23;20028;-77
2023/03/26 05:01:46;;;;;;;2.25;0.77;;;;;;;7.45;67.94;95841.66;6246979;23;20020;-77
2023/03/26 05:04:14;;;;;;;7.72;3.35;;;;;;;7.38;68.20;95836.41;6247265;22;20016;-77
2023/03/26 05:06:42;;;;;;;5.85;1.70;;;;;;;7.34;68.24;95841.13;6247415;22;20048;-76
2023/03/26 05:09:10;;;;;;;4.82;1.50;;;;;;;7.38;69.52;95837.19;6246623;23;20099;-77
2023/03/26 05:11:37;;;;;;;2.33;1.20;;;;;;;7.44;68.70;95830.50;6246798;22;20020;-77
2023/03/26 05:14:05;;;;;;;4.35;1.00;;;;;;;7.43;68.67;95837.47;6245973;22;20087;-79
2023/03/26 05:16:34;;;;;;;2.55;1.08;;;;;;;7.40;68.59;95835.22;6252664;23;20020;-79
2023/03/26 05:19:02;;;;;;;3.58;1.40;;;;;;;7.39;68.86;95818.06;6252640;23;20024;-78
2023/03/26 05:21:29;;;;;;;4.10;1.00;;;;;;;7.38;68.31;95811.25;6248838;23;20100;-79
2023/03/26 05:23:57;;;;;;;5.53;1.15;;;;;;;7.34;68.48;95809.19;6247695;22;20417;-79
2023/03/26 05:26:25;;;;;;;6.95;1.40;;;;;;;7.30;69.05;95808.75;6247068;23;20071;-79
2023/03/26 05:28:52;;;;;;;3.33;1.13;;;;;;;7.38;69.43;95818.22;6246345;22;20026;-79
2023/03/26 05:31:21;;;;;;;1.98;0.90;;;;;;;7.47;69.88;95811.16;6247653;22;20475;-80
2023/03/26 05:33:50;;;;;;;3.85;1.30;;;;;;;7.52;69.16;95821.78;6247600;22;20020;-79
2023/03/26 05:36:18;;;;;;;2.60;0.80;;;;;;;7.53;69.71;95828.59;6247267;22;20456;-79
2023/03/26 05:38:48;;;;;;;4.43;1.67;;;;;;;7.52;69.06;95821.78;6246308;23;20046;-79
2023/03/26 05:41:17;;;;;;;2.53;1.52;;;;;;;7.51;69.35;95822.78;6247632;23;20036;-79
2023/03/26 05:43:46;;;;;;;5.55;1.30;;;;;;;7.49;68.84;95817.78;6247747;22;20016;-79
2023/03/26 05:46:14;;;;;;;4.68;1.83;;;;;;;7.50;69.59;95819.41;6247210;23;20339;-79
2023/03/26 05:48:41;;;;;;;2.75;1.10;;;;;;;7.51;68.69;95812.41;6246484;22;20020;-79
2023/03/26 05:51:11;;;;;;;1.92;1.30;;;;;;;7.50;69.01;95813.38;6247266;23;20027;-79
2023/03/26 05:53:38;;;;;;;3.97;1.48;;;;;;;7.46;68.36;95817.34;6247253;22;20082;-79
2023/03/26 05:56:07;;;;;;;4.00;1.20;;;;;;;7.36;67.91;95812.41;6246935;23;20016;-79
2023/03/26 05:58:35;;;;;;;5.07;1.17;;;;;;;7.18;68.30;95798.03;6246361;22;20096;-79
2023/03/26 06:01:07;;;;;;;4.57;1.23;;;;;;;6.99;68.76;95786.41;6247039;22;20018;-80
2023/03/26 06:03:37;;;;;;;6.95;1.60;;;;;;;6.85;69.21;95789.00;6247412;22;20020;-80
2023/03/26 06:06:08;;;;;;;3.22;1.80;;;;;;;6.76;69.57;95796.06;6247778;23;20038;-79
2023/03/26 06:08:38;;;;;;;5.82;1.33;;;;;;;6.70;69.79;95781.22;6264635;23;20054;-80
2023/03/26 06:11:07;;;;;;;3.80;1.20;;;;;;;6.66;70.46;95785.94;6264340;23;20028;-80
2023/03/26 06:13:34;;;;;;;4.50;1.30;;;;;;;6.72;70.61;95779.25;6248430;22;20018;-80
2023/03/26 06:16:02;;;;;;;3.65;1.55;;;;;;;6.77;70.58;95776.94;6247110;23;20020;-79
2023/03/26 06:18:30;;;;;;;7.85;2.42;;;;;;;6.84;70.40;95782.22;6246487;23;20467;-79
2023/03/26 06:20:58;;;;;;;5.25;1.55;;;;;;;6.89;70.24;95783.28;6246968;22;20031;-79
2023/03/26 06:23:26;;;;;;;3.42;1.30;;;;;;;6.95;71.18;95777.41;6246879;22;20046;-79
2023/03/26 06:25:55;;;;;;;2.35;1.25;;;;;;;7.05;70.85;95773.72;6246487;22;20020;-79
2023/03/26 06:28:23;;;;;;;4.35;1.60;;;;;;;7.11;70.32;95767.81;6245635;22;20020;-79
2023/03/26 06:30:51;;;;;;;5.25;1.92;;;;;;;7.19;70.39;95770.28;6247170;22;20020;-79
2023/03/26 06:33:19;;;;;;;6.50;2.00;;;;;;;7.25;69.91;95761.00;6247522;22;20103;-79
2023/03/26 06:35:50;;;;;;;5.82;2.10;;;;;;;7.29;70.14;95752.66;6247479;22;20024;-79
2023/03/26 06:38:18;;;;;;;3.65;1.65;;;;;;;7.36;69.96;95745.75;6246344;23;20017;-79
2023/03/26 06:40:45;;;;;;;3.45;1.50;;;;;;;7.39;69.58;95737.63;6246799;22;20352;-79
2023/03/26 06:43:14;;;;;;;4.53;1.90;;;;;;;7.38;69.43;95738.59;6246783;22;20027;-79
2023/03/26 06:45:42;;;;;;;8.38;1.63;;;;;;;7.38;69.75;95733.41;6246173;22;20095;-79
2023/03/26 06:48:09;;;;;;;2.75;1.73;;;;;;;7.41;69.69;95730.47;6246000;22;20020;-79
2023/03/26 06:50:37;;;;;;;5.38;1.85;;;;;;;7.48;69.71;95733.13;6246614;23;20024;-79
2023/03/26 06:53:04;;;;;;;3.28;1.88;;;;;;;7.55;70.63;95734.00;6246262;22;20026;-79
2023/03/26 06:55:32;;;;;;;3.33;1.67;;;;;;;7.63;71.79;95731.28;6246027;22;20490;-79
2023/03/26 06:58:00;;;;;;;7.20;2.22;;;;;;;7.73;72.04;95738.75;6246929;23;20452;-80
2023/03/26 07:00:29;;;;;;;4.13;1.73;;;;;;;7.77;71.18;95734.81;6245435;22;20024;-81
2023/03/26 07:02:57;;;;;;;1.75;1.48;;;;;;;7.75;70.93;95723.81;6253187;22;20027;-81
2023/03/26 07:05:25;;;;;;;2.75;1.27;;;;;;;7.78;71.56;95728.66;6270318;22;20014;-81
2023/03/26 07:07:52;;;;;;;3.40;1.50;;;;;;;7.84;72.04;95721.91;6268934;22;20024;-81
2023/03/26 07:10:23;;;;;;;4.45;1.50;;;;;;;7.91;73.08;95708.97;6250008;22;20058;-81
2023/03/26 07:12:53;;;;;;;5.18;2.40;;;;;;;7.95;71.63;95712.81;6246916;23;20391;-81
2023/03/26 07:15:21;;;;;;;3.67;1.52;;;;;;;7.98;71.45;95707.22;6245994;22;20028;-81
2023/03/26 07:17:51;;;;;;;13.02;1.92;;;;;;;8.03;72.48;95703.09;6246872;22;20026;-80
2023/03/26 07:20:19;;;;;;;4.15;1.30;;;;;;;8.05;71.11;95695.13;6247147;22;20475;-81
2023/03/26 07:22:48;;;;;;;3.30;1.80;;;;;;;7.97;70.36;95684.84;6256577;22;20027;-81
2023/03/26 07:25:18;;;;;;;5.07;2.53;;;;;;;7.85;70.72;95676.78;6265807;22;20036;-82
2023/03/26 07:27:55;;;;;;;6.93;2.17;;;;;;;7.72;70.78;95690.44;6265852;22;20002;-81
2023/03/26 07:30:30;;;;;;;5.40;2.05;;;;;;;7.61;71.34;95689.16;6265675;23;20078;-81
2023/03/26 07:33:03;;;;;;;6.88;2.42;;;;;;;7.56;71.83;95682.88;6252652;23;20020;-81
2023/03/26 07:35:39;;;;;;;6.15;1.80;;;;;;;7.53;71.88;95667.69;6246790;22;20022;-81
2023/03/26 07:38:24;;;;;;;6.80;3.70;;;;;;;7.51;71.94;95667.09;6246370;23;20028;-80
2023/03/26 07:41:02;;;;;;;3.90;2.33;;;;;;;7.49;71.39;95656.09;6246066;23;20091;-81
2023/03/26 07:43:51;;;;;;;5.80;2.17;;;;;;;7.46;71.55;95656.47;6246329;23;20020;-81
2023/03/26 07:46:24;;;;;;;5.68;1.90;;;;;;;7.36;71.21;95652.38;6247160;23;20048;-81
2023/03/26 07:48:57;;;;;;;5.57;1.52;;;;;;;7.29;71.62;95630.75;6246624;23;20019;-81
2023/03/26 07:51:25;;;;;;;4.07;2.15;;;;;;;7.24;71.72;95625.31;6246560;23;20020;-81
2023/03/26 07:53:54;;;;;;;4.97;2.15;;;;;;;7.21;71.85;95617.88;6245734;22;20719;-81
2023/03/26 07:56:31;;;;;;;4.97;1.98;;;;;;;7.24;72.82;95607.16;6246691;22;20020;-81
2023/03/26 07:59:12;;;;;;;5.88;1.88;;;;;;;7.28;74.95;95605.81;6246144;23;20012;-81
2023/03/26 08:01:55;;;;;;;8.02;2.30;;;;;;;7.36;75.44;95595.28;6246352;23;20082;-81
2023/03/26 08:04:56;;;;;;;2.88;1.98;;;;;;;7.48;75.26;95597.38;6245640;22;20061;-80
2023/03/26 08:07:38;;;;;;;4.25;1.88;;;;;;;7.56;73.91;95590.25;6245657;23;20028;-80
2023/03/26 08:10:15;;;;;;;5.47;1.83;;;;;;;7.63;73.68;95585.13;6245351;23;20040;-80
2023/03/26 08:12:52;;;;;;;2.75;1.60;;;;;;;7.68;73.01;95585.38;6246154;23;20016;-80
2023/03/26 08:15:28;;;;;;;4.97;1.95;;;;;;;7.75;73.55;95586.22;6245100;22;20418;-80
2023/03/26 08:18:05;;;;;;;4.13;1.60;;;;;;;7.80;73.16;95578.66;6244815;23;20023;-80
2023/03/26 08:20:42;;;;;;;5.07;1.45;;;;;;;7.86;72.58;95584.09;6245807;23;20020;-80
2023/03/26 08:23:18;;;;;;;5.78;1.73;;;;;;;7.92;73.61;95580.75;6245063;23;20074;-81
2023/03/26 08:25:53;;;;;;;3.10;2.08;;;;;;;7.97;71.99;95583.56;6245385;22;20012;-81
2023/03/26 08:28:36;;;;;;;4.05;1.52;;;;;;;7.97;72.31;95575.78;6244841;23;20095;-81
2023/03/26 08:31:05;;;;;;;7.00;1.85;;;;;;;7.98;73.21;95579.97;6245424;23;20016;-81
2023/03/26 08:33:35;;;;;;;5.25;2.05;;;;;;;8.02;72.97;95586.41;6245588;22;20016;-80
2023/03/26 08:36:07;;;;;;;3.87;2.00;;;;;;;8.05;72.41;95583.44;6247278;23;20050;-81
2023/03/26 08:38:35;;;;;;;3.05;1.60;;;;;;;8.09;72.78;95587.25;6247726;23;20098;-80
2023/03/26 08:41:38;;;;;;;3.72;2.30;;;;;;;8.17;74.27;95581.09;6247829;22;20021;-81
2023/03/26 08:44:26;;;;;;;7.00;2.15;;;;;;;8.18;73.22;95578.31;6248205;22;20023;-81
2023/03/26 08:47:31;;;;;;;5.35;2.42;;;;;;;8.14;73.14;95566.69;6258072;23;20002;-81
2023/03/26 08:50:43;;;;;;;4.35;1.90;;;;;;;8.13;73.15;95572.06;6263325;22;20035;-82
2023/03/26 08:53:39;;;;;;;5.80;1.90;;;;;;;8.11;72.50;95576.66;6261358;23;20051;-81
2023/03/26 08:56:12;;;;;;;4.97;2.30;;;;;;;8.15;73.98;95570.88;6250228;22;20047;-80
2023/03/26 08:59:00;;;;;;;4.20;2.50;;;;;;;8.21;74.66;95577.13;6249954;23;20455;-81
2023/03/26 09:01:48;;;;;;;6.22;2.75;;;;;;;8.25;74.75;95571.34;6247936;23;20031;-81
2023/03/26 09:04:46;;;;;;;4.43;2.35;;;;;;;8.31;75.12;95561.16;6249540;22;20060;-81
2023/03/26 09:07:43;;;;;;;6.30;1.90;;;;;;;8.33;74.60;95559.19;6258850;23;20027;-80
2023/03/26 09:10:51;;;;;;;6.68;2.38;;;;;;;8.28;74.54;95540.78;6205309;22;20020;-81
2023/03/26 09:14:01;;;;;;;5.10;2.38;;;;;;;8.27;75.06;95536.59;6250840;23;20107;-81
2023/03/26 09:17:07;;;;;;;4.97;2.33;;;;;;;8.28;75.35;95540.78;6160427;23;20020;-81
2023/03/26 09:20:12;;;;;;;6.15;1.83;;;;;;;8.20;74.83;95549.56;6248351;23;20024;-81
2023/03/26 09:23:07;;;;;;;3.92;1.17;;;;;;;8.13;74.09;95531.31;6248595;23;20052;-82
2023/03/26 09:26:03;;;;;;;5.20;1.70;;;;;;;8.09;73.67;95521.50;6248073;22;20103;-81
2023/03/26 09:29:12;;;;;;;4.13;1.60;;;;;;;8.02;75.16;95521.47;6246959;23;20026;-81
2023/03/26 09:32:11;;;;;;;8.30;4.00;;;;;;;8.03;74.75;95517.91;6248147;23;20063;-81
2023/03/26 09:34:55;;;;;;;9.82;4.03;;;;;;;8.01;74.68;95512.09;6247596;22;20102;-81
2023/03/26 09:37:28;;;;;;;3.00;1.98;;;;;;;8.04;73.94;95509.09;6248131;23;20103;-81
2023/03/26 09:40:09;;;;;;;6.65;3.70;;;;;;;8.02;73.92;95505.88;6247661;23;20059;-81
2023/03/26 09:42:44;;;;;;;6.88;3.17;;;;;;;8.05;74.46;95510.72;6248021;23;20031;-81
2023/03/26 09:45:36;;;;;;;3.38;1.70;;;;;;;8.07;74.48;95495.75;6248396;22;20099;-81
2023/03/26 09:48:29;;;;;;;3.63;1.80;;;;;;;8.08;75.11;95505.13;6230455;22;20024;-81
2023/03/26 09:51:13;;;;;;;6.85;2.22;;;;;;;8.10;74.52;95492.75;6247364;23;20452;-81
2023/03/26 09:54:18;;;;;;;2.80;1.50;;;;;;;8.12;74.26;95501.16;6247307;22;20035;-81
2023/03/26 09:56:56;;;;;;;16.50;8.43;;;;;;;8.16;74.92;95502.38;6247330;23;20016;-81
2023/03/26 09:59:49;;;;;;;37.88;14.20;;;;;;;8.21;74.74;95505.19;6247027;23;20022;-80
2023/03/26 10:02:44;;;;;;;13.48;6.18;;;;;;;8.24;75.53;95504.81;6234363;23;20103;-81
2023/03/26 10:05:30;;;;;;;10.70;4.95;;;;;;;8.27;75.36;95490.63;6252817;22;20019;-81
2023/03/26 10:08:24;;;;;;;6.97;3.75;;;;;;;8.34;75.07;95472.47;6247650;23;20091;-81
2023/03/26 10:10:57;;;;;;;3.15;1.77;;;;;;;8.42;74.93;95472.31;6247269;23;20072;-81
2023/03/26 10:13:32;;;;;;;6.60;1.83;;;;;;;8.46;74.61;95478.72;6249265;23;20748;-81
2023/03/26 10:16:11;;;;;;;2.58;1.45;;;;;;;8.49;74.75;95474.94;6249291;23;20340;-81
2023/03/26 10:18:51;;;;;;;3.53;1.60;;;;;;;8.53;74.99;95476.94;6247475;23;20050;-81
2023/03/26 10:21:34;;;;;;;2.78;1.23;;;;;;;8.58;75.64;95474.56;6247518;23;20559;-81
2023/03/26 10:24:24;;;;;;;3.78;1.35;;;;;;;8.63;75.13;95476.56;6247051;22;20039;-81
2023/03/26 10:27:03;;;;;;;3.15;1.70;;;;;;;8.66;74.45;95474.38;6247974;23;20039;-81
2023/03/26 10:30:18;;;;;;;3.20;1.63;;;;;;;8.77;75.83;95462.59;6247592;23;20460;-81
2023/03/26 10:32:57;;;;;;;2.95;1.48;;;;;;;8.87;75.98;95462.19;6247414;23;20020;-81
2023/03/26 10:35:41;;;;;;;1.58;0.95;;;;;;;9.02;74.26;95472.41;6247492;22;20448;-81
2023/03/26 10:38:18;;;;;;;1.88;0.90;;;;;;;9.17;75.05;95469.63;6268528;23;20026;-81
2023/03/26 10:40:58;;;;;;;3.28;1.17;;;;;;;9.30;73.32;95472.22;6271383;23;20023;-81
2023/03/26 10:44:18;;;;;;;2.38;1.10;;;;;;;9.43;73.23;95461.78;6252898;23;20102;-81
2023/03/26 10:47:11;;;;;;;1.42;0.85;;;;;;;9.55;72.77;95468.97;6247450;23;20024;-80
2023/03/26 10:50:00;;;;;;;1.33;0.95;;;;;;;9.65;73.42;95459.75;6247232;23;20020;-81
2023/03/26 10:52:55;;;;;;;1.98;0.98;;;;;;;9.78;72.84;95469.34;6258536;23;20020;-82
2023/03/26 10:55:30;;;;;;;0.88;0.63;;;;;;;9.84;69.45;95468.53;6256025;22;20054;-81
2023/03/26 10:58:04;;;;;;;2.00;0.50;;;;;;;9.90;70.55;95467.72;6247669;23;20016;-82
2023/03/26 11:00:39;;;;;;;1.48;0.57;;;;;;;9.96;70.49;95462.69;6246958;23;20093;-83
2023/03/26 11:03:31;;;;;;;2.42;0.57;;;;;;;10.00;68.80;95463.88;6246731;23;20020;-81
2023/03/26 11:06:14;;;;;;;0.90;0.45;;;;;;;10.05;69.96;95469.25;6251506;23;20043;-82
2023/03/26 11:08:48;;;;;;;1.48;0.70;;;;;;;10.12;69.88;95470.03;6247383;23;20016;-81
2023/03/26 11:11:30;;;;;;;1.15;1.05;;;;;;;10.26;68.11;95450.72;6245486;23;20028;-81
2023/03/26 11:14:05;;;;;;;2.08;0.60;;;;;;;10.44;69.01;95449.28;6246502;22;20024;-81
2023/03/26 11:19:21;;;;;;;0.82;0.57;;;;;;;10.95;67.31;95450.94;6242312;22;20023;-79
2023/03/26 11:21:57;;;;;;;0.75;0.73;;;;;;;11.17;66.77;95445.38;6246152;23;20457;-79
2023/03/26 11:24:55;;;;;;;1.17;0.60;;;;;;;11.42;67.41;95440.94;6247206;23;20052;-79
2023/03/26 11:27:35;;;;;;;1.60;0.50;;;;;;;11.65;66.57;95452.56;6241384;22;20051;-79
2023/03/26 11:30:14;;;;;;;1.88;0.70;;;;;;;11.85;65.40;95447.13;6245774;23;20356;-79
2023/03/26 11:32:46;;;;;;;7.22;1.30;;;;;;;11.95;65.42;95450.06;6265170;23;20047;-81
2023/03/26 11:35:19;;;;;;;1.00;0.70;;;;;;;11.98;62.32;95435.78;6264011;22;20016;-79
2023/03/26 11:38:15;;;;;;;1.25;0.70;;;;;;;12.02;63.94;95434.31;6263231;22;20051;-79
2023/03/26 11:40:49;;;;;;;0.80;0.47;;;;;;;12.03;63.38;95434.09;6262888;23;20034;-79
2023/03/26 11:43:24;;;;;;;0.60;0.60;;;;;;;12.06;63.50;95443.31;6246899;23;20052;-79
2023/03/26 11:45:52;;;;;;;2.15;0.90;;;;;;;12.09;62.04;95429.81;6245239;23;20107;-79
2023/03/26 11:48:26;;;;;;;1.58;0.70;;;;;;;12.19;61.35;95421.44;6244997;22;20028;-79
2023/03/26 11:51:00;;;;;;;2.88;0.63;;;;;;;12.26;61.25;95424.78;6245329;23;20019;-79
2023/03/26 11:53:33;;;;;;;1.80;0.70;;;;;;;12.26;61.42;95428.19;6244842;23;20517;-78
2023/03/26 11:56:04;;;;;;;1.25;0.57;;;;;;;12.14;60.04;95411.66;6245405;23;20040;-79
2023/03/26 11:58:40;;;;;;;2.37;0.83;;;;;;;12.03;61.50;95412.41;6245595;22;20031;-78
2023/03/26 12:01:14;;;;;;;1.15;0.50;;;;;;;11.97;60.25;95413.28;6245923;23;20040;-79
2023/03/26 12:03:43;;;;;;;1.23;0.63;;;;;;;11.94;62.90;95402.25;6245892;23;20016;-79
2023/03/26 12:06:24;;;;;;;1.23;0.98;;;;;;;11.92;61.20;95406.88;6245256;22;20012;-79
2023/03/26 12:08:53;;;;;;;;;;;;;;;11.86;62.08;95405.13;6245932;23;20020;-79
2023/03/26 12:11:26;;;;;;;0.80;0.75;;;;;;;11.84;61.90;95408.97;6246063;22;19990;-79
2023/03/26 12:14:00;;;;;;;0.77;0.60;;;;;;;11.85;61.30;95403.53;6245699;23;20023;-79
2023/03/26 12:16:28;;;;;;;0.70;0.45;;;;;;;11.93;63.01;95408.47;6245576;22;20051;-79
2023/03/26 12:19:02;;;;;;;2.83;1.20;;;;;;;12.03;61.30;95391.50;6243966;23;20440;-78